Time;durP1;ratioP1;P1;durP2;ratioP2;P2;SDS_P1;SDS_P2;PMS_P1;PMS_P2;Temp;Humidity;BMP_temperature;BMP_pressure;BME280_temperature;BME280_humidity;BME280_pressure;Samples;Min_cycle;Max_cycle;Signal;HPM_P1;HPM_P2
2023/09/25 00:00:19;;;;;;;2.10;1.83;;;12.80;99.90;;;;;;5050875;28;20176;-71
2023/09/25 00:02:45;;;;;;;4.57;2.00;;;12.80;99.90;;;;;;5050900;28;20232;-71
2023/09/25 00:05:11;;;;;;;3.60;1.70;;;12.80;99.90;;;;;;5051899;28;20438;-71
2023/09/25 00:07:38;;;;;;;2.70;1.50;;;12.80;99.90;;;;;;5050764;28;20410;-71
2023/09/25 00:10:04;;;;;;;2.60;1.77;;;12.70;99.90;;;;;;5051913;28;20218;-71
2023/09/25 00:12:29;;;;;;;5.37;2.27;;;12.60;99.90;;;;;;5050644;28;20410;-71
2023/09/25 00:14:55;;;;;;;5.13;1.60;;;12.50;99.90;;;;;;5050528;28;20440;-71
2023/09/25 00:17:21;;;;;;;3.93;2.13;;;12.20;99.90;;;;;;5051802;28;20286;-71
2023/09/25 00:19:47;;;;;;;3.53;2.20;;;12.30;99.90;;;;;;5050599;28;20187;-71
2023/09/25 00:22:13;;;;;;;8.23;2.07;;;12.00;99.90;;;;;;5050246;28;20526;-71
2023/09/25 00:24:38;;;;;;;3.40;2.10;;;11.90;99.90;;;;;;5050365;28;20208;-71
2023/09/25 00:27:04;;;;;;;2.90;1.70;;;11.90;99.90;;;;;;5050435;28;20717;-72
2023/09/25 00:29:29;;;;;;;2.17;1.90;;;11.90;99.90;;;;;;5050410;28;20187;-71
2023/09/25 00:31:55;;;;;;;4.93;2.40;;;11.90;99.90;;;;;;5050213;28;20184;-71
2023/09/25 00:34:21;;;;;;;2.23;1.87;;;11.90;99.90;;;;;;5051415;28;20215;-71
2023/09/25 00:36:46;;;;;;;2.77;1.70;;;11.90;99.90;;;;;;5051544;28;20290;-71
2023/09/25 00:39:12;;;;;;;3.23;1.43;;;11.90;99.90;;;;;;5051499;28;20559;-71
2023/09/25 00:41:38;;;;;;;3.30;2.30;;;11.90;99.90;;;;;;5050148;28;20178;-71
2023/09/25 00:44:04;;;;;;;3.37;2.07;;;12.00;99.90;;;;;;5050092;28;20441;-71
2023/09/25 00:46:31;;;;;;;2.97;2.43;;;12.20;99.90;;;;;;5051388;28;20180;-71
2023/09/25 00:48:57;;;;;;;2.57;2.00;;;12.20;99.90;;;;;;5051335;28;20226;-71
2023/09/25 00:51:23;;;;;;;3.60;1.37;;;12.30;99.90;;;;;;5051297;28;20766;-72
2023/09/25 00:53:48;;;;;;;5.07;1.70;;;12.30;99.90;;;;;;5051236;28;20187;-71
2023/09/25 00:56:15;;;;;;;3.43;1.73;;;12.50;99.90;;;;;;5033316;28;20921;-71
2023/09/25 00:58:40;;;;;;;2.83;1.83;;;12.60;99.90;;;;;;5051251;28;20189;-71
2023/09/25 01:01:11;;;;;;;4.93;1.80;;;12.70;99.90;;;;;;5051322;28;20822;-71
2023/09/25 01:03:36;;;;;;;2.10;1.50;;;12.70;99.90;;;;;;5050870;28;20704;-71
2023/09/25 01:06:04;;;;;;;2.40;1.90;;;12.70;99.90;;;;;;5057896;28;20524;-71
2023/09/25 01:08:30;;;;;;;4.90;1.80;;;12.70;99.90;;;;;;5057744;28;20630;-71
2023/09/25 01:10:56;;;;;;;3.13;1.80;;;12.70;99.90;;;;;;5057735;28;20503;-71
2023/09/25 01:13:21;;;;;;;5.53;1.53;;;12.70;99.90;;;;;;5057742;28;20210;-71
2023/09/25 01:15:47;;;;;;;8.90;1.93;;;12.70;99.90;;;;;;5056401;28;20700;-71
2023/09/25 01:18:13;;;;;;;2.60;1.63;;;12.70;99.90;;;;;;5057710;28;20677;-71
2023/09/25 01:20:38;;;;;;;1.43;1.10;;;12.70;99.90;;;;;;5057673;28;20187;-72
2023/09/25 01:23:04;;;;;;;3.87;1.90;;;12.70;99.90;;;;;;5057789;28;20211;-72
2023/09/25 01:25:30;;;;;;;4.00;1.60;;;12.70;99.90;;;;;;5056395;28;20223;-71
2023/09/25 01:27:55;;;;;;;4.23;1.70;;;12.80;99.90;;;;;;5056380;28;20189;-71
2023/09/25 01:30:21;;;;;;;4.13;2.23;;;12.70;99.90;;;;;;5057634;28;20586;-71
2023/09/25 01:32:49;;;;;;;2.10;1.73;;;12.80;99.90;;;;;;5057635;28;20188;-71
2023/09/25 01:35:17;;;;;;;3.53;1.70;;;12.80;99.90;;;;;;5056293;28;20195;-72
2023/09/25 01:37:44;;;;;;;10.50;2.40;;;12.80;99.90;;;;;;5056197;28;20422;-71
2023/09/25 01:40:19;;;;;;;4.93;2.30;;;12.80;99.90;;;;;;5056179;28;20432;-72
2023/09/25 01:42:46;;;;;;;1.87;1.67;;;12.80;99.90;;;;;;5057502;28;20468;-71
2023/09/25 01:45:15;;;;;;;3.53;1.60;;;12.90;99.90;;;;;;5057445;28;20430;-71
2023/09/25 01:47:42;;;;;;;4.20;2.03;;;12.80;99.90;;;;;;5057444;28;20423;-71
2023/09/25 01:50:11;;;;;;;3.77;1.93;;;12.90;99.90;;;;;;5057501;28;20417;-71
2023/09/25 01:52:37;;;;;;;7.20;1.80;;;12.80;99.90;;;;;;5057410;28;20511;-71
2023/09/25 01:55:06;;;;;;;2.70;1.40;;;12.80;99.90;;;;;;5057304;28;20966;-71
2023/09/25 01:57:32;;;;;;;2.60;1.60;;;12.80;99.90;;;;;;5057243;28;20535;-71
2023/09/25 01:59:58;;;;;;;3.77;1.90;;;12.80;99.90;;;;;;5057419;28;20552;-71
2023/09/25 02:02:23;;;;;;;2.37;1.60;;;12.70;99.90;;;;;;5057248;28;21010;-71
2023/09/25 02:04:49;;;;;;;3.10;1.70;;;12.50;99.90;;;;;;5057282;28;20203;-71
2023/09/25 02:07:15;;;;;;;4.20;2.00;;;12.50;99.90;;;;;;5057285;28;20710;-71
2023/09/25 02:09:41;;;;;;;3.70;1.60;;;12.40;99.90;;;;;;5057394;28;20168;-71
2023/09/25 02:12:07;;;;;;;2.47;1.60;;;12.30;99.90;;;;;;5056063;28;20940;-71
2023/09/25 02:14:33;;;;;;;3.37;1.60;;;12.10;99.90;;;;;;5022968;28;20238;-71
2023/09/25 02:16:59;;;;;;;3.20;1.77;;;12.10;99.90;;;;;;5052169;28;20806;-71
2023/09/25 02:19:28;;;;;;;4.20;1.73;;;12.10;99.90;;;;;;5054112;28;20418;-71
2023/09/25 02:21:54;;;;;;;2.87;1.57;;;12.10;99.90;;;;;;5054067;28;20556;-73
2023/09/25 02:24:20;;;;;;;4.83;2.13;;;12.10;99.90;;;;;;5053877;28;20445;-71
2023/09/25 02:26:45;;;;;;;2.37;1.83;;;12.00;99.90;;;;;;5053978;28;20407;-71
2023/09/25 02:29:11;;;;;;;3.40;1.73;;;11.90;99.90;;;;;;5052454;28;20678;-71
2023/09/25 02:31:36;;;;;;;3.77;2.00;;;11.70;99.90;;;;;;5053738;28;20186;-71
2023/09/25 02:34:02;;;;;;;1.73;1.63;;;11.80;99.90;;;;;;5053705;28;20316;-71
2023/09/25 02:36:28;;;;;;;3.30;1.53;;;11.90;99.90;;;;;;5053787;28;20276;-71
2023/09/25 02:38:53;;;;;;;3.90;1.53;;;11.80;99.90;;;;;;5035835;28;20234;-71
2023/09/25 02:41:19;;;;;;;3.70;1.83;;;11.80;99.90;;;;;;5054005;28;20389;-71
2023/09/25 02:43:44;;;;;;;2.80;1.97;;;12.00;99.90;;;;;;5035587;28;20265;-71
2023/09/25 02:46:10;;;;;;;2.40;1.93;;;12.00;99.90;;;;;;5053503;28;20214;-71
2023/09/25 02:48:35;;;;;;;5.17;2.10;;;11.90;99.90;;;;;;5053482;28;20179;-71
2023/09/25 02:51:01;;;;;;;2.93;1.73;;;12.00;99.90;;;;;;5052223;28;20181;-71
2023/09/25 02:53:26;;;;;;;3.37;1.80;;;11.90;99.90;;;;;;5053449;28;20187;-71
2023/09/25 02:55:52;;;;;;;2.70;1.83;;;11.70;99.90;;;;;;5053238;28;20219;-71
2023/09/25 02:58:18;;;;;;;3.23;2.10;;;11.60;99.90;;;;;;5053379;28;20211;-71
2023/09/25 03:00:44;;;;;;;3.00;1.67;;;11.70;99.90;;;;;;5051858;28;20214;-71
2023/09/25 03:03:11;;;;;;;4.50;2.00;;;11.70;99.90;;;;;;5053136;28;20207;-71
2023/09/25 03:05:37;;;;;;;2.43;1.50;;;11.60;99.90;;;;;;5051816;28;20497;-71
2023/09/25 03:08:03;;;;;;;6.10;1.63;;;11.60;99.90;;;;;;5053124;28;20422;-71
2023/09/25 03:10:29;;;;;;;2.63;1.67;;;11.60;99.90;;;;;;5051884;28;20182;-71
2023/09/25 03:12:54;;;;;;;2.07;1.60;;;11.50;99.90;;;;;;5035140;28;20430;-71
2023/09/25 03:15:20;;;;;;;2.43;1.70;;;11.50;99.90;;;;;;5051705;28;20200;-71
2023/09/25 03:17:45;;;;;;;2.10;1.70;;;11.50;99.90;;;;;;5052983;28;20645;-71
2023/09/25 03:20:17;;;;;;;4.63;2.03;;;11.60;99.90;;;;;;5052970;28;20267;-71
2023/09/25 03:22:45;;;;;;;2.97;1.90;;;11.70;99.90;;;;;;5051628;28;20287;-71
2023/09/25 03:25:12;;;;;;;6.27;2.30;;;11.70;99.90;;;;;;5051534;28;20442;-71
2023/09/25 03:27:38;;;;;;;3.13;2.00;;;11.70;99.90;;;;;;5051639;28;20916;-71
2023/09/25 03:30:05;;;;;;;2.20;1.67;;;11.60;99.90;;;;;;5052703;28;20961;-71
2023/09/25 03:32:31;;;;;;;4.80;1.90;;;11.60;99.90;;;;;;5052610;28;20420;-71
2023/09/25 03:34:57;;;;;;;3.50;2.10;;;11.60;99.90;;;;;;5052620;28;20441;-71
2023/09/25 03:37:22;;;;;;;3.07;1.90;;;11.50;99.90;;;;;;5051318;28;20418;-71
2023/09/25 03:39:48;;;;;;;2.30;1.77;;;11.30;99.90;;;;;;5052508;28;20184;-71
2023/09/25 03:42:13;;;;;;;2.63;1.90;;;11.20;99.90;;;;;;5052531;28;20208;-71
2023/09/25 03:44:39;;;;;;;3.30;2.20;;;11.10;99.90;;;;;;5051107;28;20291;-71
2023/09/25 03:47:05;;;;;;;2.40;1.70;;;11.10;99.90;;;;;;5052328;28;20186;-71
2023/09/25 03:49:31;;;;;;;2.53;1.87;;;11.00;99.90;;;;;;5052299;28;20256;-71
2023/09/25 03:51:56;;;;;;;6.93;2.80;;;10.90;99.90;;;;;;5050958;28;20453;-71
2023/09/25 03:54:22;;;;;;;4.57;2.83;;;10.70;99.90;;;;;;5052155;28;20207;-71
2023/09/25 03:56:48;;;;;;;3.93;2.70;;;10.60;99.90;;;;;;5052187;28;20276;-71
2023/09/25 03:59:13;;;;;;;6.20;2.13;;;10.50;99.90;;;;;;5050955;28;20179;-71
2023/09/25 04:01:39;;;;;;;2.60;2.30;;;10.40;99.90;;;;;;5050688;28;20722;-71
2023/09/25 04:04:06;;;;;;;3.23;1.80;;;10.30;99.90;;;;;;5051967;28;20798;-71
2023/09/25 04:06:33;;;;;;;2.57;2.00;;;10.40;99.90;;;;;;5052035;28;20261;-71
2023/09/25 04:08:59;;;;;;;4.80;1.90;;;10.30;99.90;;;;;;5050772;28;20955;-71
2023/09/25 04:11:24;;;;;;;3.30;1.90;;;10.30;99.90;;;;;;5050702;28;20479;-71
2023/09/25 04:13:50;;;;;;;6.83;2.43;;;10.30;99.90;;;;;;5051778;28;20197;-71
2023/09/25 04:16:16;;;;;;;4.13;2.77;;;10.20;99.90;;;;;;5051898;28;20274;-71
2023/09/25 04:18:45;;;;;;;2.47;2.27;;;10.00;99.90;;;;;;5051849;28;20613;-71
2023/09/25 04:21:14;;;;;;;5.10;2.50;;;9.90;99.90;;;;;;5050478;28;20433;-71
2023/09/25 04:23:40;;;;;;;3.63;2.47;;;9.80;99.90;;;;;;5051615;28;20469;-71
2023/09/25 04:26:06;;;;;;;3.97;2.50;;;9.90;99.90;;;;;;5051738;28;20410;-71
2023/09/25 04:28:32;;;;;;;6.40;3.00;;;9.80;99.90;;;;;;5051565;28;20412;-71
2023/09/25 04:30:59;;;;;;;3.53;2.27;;;9.70;99.90;;;;;;5051618;28;20903;-71
2023/09/25 04:33:26;;;;;;;5.67;2.70;;;9.70;99.90;;;;;;5050378;28;20186;-70
2023/09/25 04:35:58;;;;;;;3.00;2.40;;;9.50;99.90;;;;;;5050143;28;20472;-72
2023/09/25 04:38:25;;;;;;;4.47;2.47;;;9.60;99.90;;;;;;5051211;28;20412;-71
2023/09/25 04:40:51;;;;;;;3.73;3.00;;;9.40;99.90;;;;;;5051438;28;20472;-71
2023/09/25 04:43:17;;;;;;;5.43;3.30;;;9.40;99.90;;;;;;5051380;28;20475;-71
2023/09/25 04:45:43;;;;;;;3.80;2.83;;;9.30;99.90;;;;;;5051352;28;20232;-71
2023/09/25 04:48:09;;;;;;;3.40;2.57;;;9.20;99.90;;;;;;5051491;28;20428;-71
2023/09/25 04:50:36;;;;;;;6.40;2.67;;;9.10;99.90;;;;;;5051353;28;20417;-71
2023/09/25 04:53:05;;;;;;;3.83;2.50;;;9.10;99.90;;;;;;5050004;28;20183;-71
2023/09/25 04:55:31;;;;;;;3.60;2.90;;;8.90;99.90;;;;;;5049757;28;20450;-71
2023/09/25 04:57:57;;;;;;;7.70;3.20;;;8.80;99.90;;;;;;5051223;28;20435;-71
2023/09/25 05:00:24;;;;;;;5.20;2.87;;;8.80;99.90;;;;;;5051285;28;20192;-71
2023/09/25 05:02:51;;;;;;;5.53;2.90;;;8.70;99.90;;;;;;5050112;28;20208;-71
2023/09/25 05:05:17;;;;;;;6.47;3.13;;;8.80;99.90;;;;;;5051122;28;20858;-71
2023/09/25 05:07:45;;;;;;;3.70;2.90;;;8.90;99.90;;;;;;5051219;28;20495;-71
2023/09/25 05:10:12;;;;;;;4.57;2.70;;;8.90;99.90;;;;;;5051173;28;20410;-71
2023/09/25 05:12:39;;;;;;;2.80;2.33;;;8.90;99.90;;;;;;5051144;28;20463;-71
2023/09/25 05:15:07;;;;;;;3.70;2.50;;;8.70;99.90;;;;;;5051058;28;20451;-71
2023/09/25 05:17:36;;;;;;;3.03;2.60;;;8.70;99.90;;;;;;5051138;28;20477;-71
2023/09/25 05:20:08;;;;;;;6.93;3.03;;;8.50;99.90;;;;;;5051081;28;20453;-71
2023/09/25 05:22:34;;;;;;;3.23;2.70;;;8.50;99.90;;;;;;5050998;28;20968;-71
2023/09/25 05:25:00;;;;;;;4.33;2.53;;;8.40;99.90;;;;;;5050878;28;20449;-71
2023/09/25 05:27:26;;;;;;;3.40;2.90;;;8.30;99.90;;;;;;5033219;28;20182;-70
2023/09/25 05:29:52;;;;;;;3.00;2.23;;;8.10;99.90;;;;;;5049865;28;20426;-71
2023/09/25 05:32:17;;;;;;;6.03;3.00;;;8.20;99.90;;;;;;5051040;28;20186;-71
2023/09/25 05:34:43;;;;;;;3.53;2.53;;;8.20;99.90;;;;;;5049690;28;20205;-71
2023/09/25 05:37:08;;;;;;;4.77;2.67;;;8.20;99.90;;;;;;5049670;28;20187;-70
2023/09/25 05:39:34;;;;;;;2.70;2.43;;;8.30;99.90;;;;;;5049592;28;20590;-70
2023/09/25 05:41:59;;;;;;;5.73;3.10;;;8.30;99.90;;;;;;5050917;28;20244;-71
2023/09/25 05:44:25;;;;;;;4.07;2.97;;;8.30;99.90;;;;;;5049559;28;20203;-72
2023/09/25 05:46:50;;;;;;;3.73;2.73;;;8.30;99.90;;;;;;5050821;28;20175;-71
2023/09/25 05:49:16;;;;;;;4.73;2.63;;;8.40;99.90;;;;;;5050864;28;20745;-71
2023/09/25 05:51:42;;;;;;;7.63;2.57;;;8.40;99.90;;;;;;5053062;28;20181;-71
2023/09/25 05:54:07;;;;;;;3.80;2.73;;;8.40;99.90;;;;;;5054506;28;20277;-70
2023/09/25 05:56:33;;;;;;;6.83;3.33;;;8.50;99.90;;;;;;5054502;28;20196;-71
2023/09/25 05:58:59;;;;;;;4.07;2.37;;;8.50;99.90;;;;;;5054472;28;20772;-70
2023/09/25 06:01:25;;;;;;;4.27;3.03;;;8.60;99.90;;;;;;5020485;28;20208;-71
2023/09/25 06:03:51;;;;;;;4.47;2.40;;;9.00;99.90;;;;;;5052861;28;20526;-71
2023/09/25 06:06:16;;;;;;;4.13;2.00;;;9.50;99.90;;;;;;5053131;28;20177;-72
2023/09/25 06:08:42;;;;;;;3.87;2.13;;;10.00;99.90;;;;;;5054214;28;20929;-71
2023/09/25 06:11:08;;;;;;;3.83;2.30;;;10.50;99.90;;;;;;5054387;28;20179;-71
2023/09/25 06:13:34;;;;;;;3.40;2.17;;;10.70;99.90;;;;;;5052975;28;20543;-71
2023/09/25 06:16:00;;;;;;;2.90;2.03;;;11.10;99.90;;;;;;5054087;28;20437;-71
2023/09/25 06:18:26;;;;;;;4.73;1.93;;;11.00;99.90;;;;;;5052868;28;20202;-71
2023/09/25 06:20:51;;;;;;;4.03;2.50;;;11.20;99.90;;;;;;5054135;28;20205;-71
2023/09/25 06:23:17;;;;;;;4.60;2.37;;;11.50;99.90;;;;;;5036056;28;20473;-71
2023/09/25 06:25:44;;;;;;;3.10;2.33;;;11.30;99.90;;;;;;5052696;28;20199;-71
2023/09/25 06:28:11;;;;;;;3.40;2.10;;;11.10;99.90;;;;;;5052667;28;20180;-73
2023/09/25 06:30:37;;;;;;;6.53;1.70;;;11.00;99.90;;;;;;5053935;28;20422;-71
2023/09/25 06:33:03;;;;;;;3.27;2.57;;;10.90;99.90;;;;;;5052519;28;20429;-72
2023/09/25 06:35:28;;;;;;;3.07;2.20;;;10.90;99.90;;;;;;5053678;28;20203;-71
2023/09/25 06:37:54;;;;;;;5.93;2.23;;;10.90;99.90;;;;;;5035852;28;20448;-71
2023/09/25 06:40:20;;;;;;;4.20;2.40;;;11.00;99.90;;;;;;5052778;28;20567;-71
2023/09/25 06:42:46;;;;;;;4.40;2.70;;;11.10;99.90;;;;;;5052386;28;20680;-71
2023/09/25 06:45:11;;;;;;;4.07;2.30;;;11.00;99.90;;;;;;5053733;28;20209;-71
2023/09/25 06:47:37;;;;;;;3.83;2.63;;;11.10;99.90;;;;;;5052363;28;20833;-71
2023/09/25 06:50:03;;;;;;;4.80;3.03;;;11.10;99.90;;;;;;5052239;28;20178;-71
2023/09/25 06:52:29;;;;;;;5.00;2.63;;;11.10;99.90;;;;;;5053475;28;20249;-71
2023/09/25 06:54:56;;;;;;;7.20;2.83;;;11.00;99.90;;;;;;5053319;28;20441;-71
2023/09/25 06:57:21;;;;;;;8.13;2.60;;;11.10;99.90;;;;;;5051993;28;20445;-71
2023/09/25 06:59:47;;;;;;;3.20;2.50;;;11.40;99.90;;;;;;5052093;28;20417;-71
2023/09/25 07:02:12;;;;;;;4.10;1.93;;;11.50;99.90;;;;;;5051745;28;20252;-71
2023/09/25 07:04:38;;;;;;;3.90;2.40;;;11.50;99.90;;;;;;5053143;28;20199;-71
2023/09/25 07:07:05;;;;;;;5.60;2.83;;;11.40;99.90;;;;;;5053247;28;20226;-71
2023/09/25 07:09:31;;;;;;;4.87;2.20;;;11.30;99.90;;;;;;5053168;28;20247;-71
2023/09/25 07:11:56;;;;;;;6.90;2.77;;;11.30;99.90;;;;;;5051845;28;20568;-71
2023/09/25 07:14:22;;;;;;;3.30;2.53;;;11.30;99.90;;;;;;5035013;28;20218;-71
2023/09/25 07:16:48;;;;;;;7.67;2.70;;;11.30;99.90;;;;;;5051817;28;20660;-71
2023/09/25 07:19:14;;;;;;;6.40;3.27;;;11.40;99.90;;;;;;5053035;28;20186;-71
2023/09/25 07:21:40;;;;;;;6.97;3.27;;;11.50;99.90;;;;;;5052902;28;20175;-71
2023/09/25 07:24:07;;;;;;;10.00;3.47;;;11.70;99.90;;;;;;5052904;28;20265;-71
2023/09/25 07:26:32;;;;;;;3.67;2.97;;;11.70;99.90;;;;;;5051543;28;20490;-71
2023/09/25 07:28:58;;;;;;;4.33;2.90;;;11.70;99.90;;;;;;5052725;28;20422;-71
2023/09/25 07:31:24;;;;;;;3.63;2.50;;;11.80;99.90;;;;;;5052718;28;20656;-71
2023/09/25 07:33:52;;;;;;;3.83;2.60;;;11.90;99.90;;;;;;5052645;28;20358;-71
2023/09/25 07:36:20;;;;;;;3.50;2.47;;;12.00;99.90;;;;;;5052730;28;20814;-71
2023/09/25 07:38:46;;;;;;;5.97;2.67;;;12.20;99.90;;;;;;5052640;28;20474;-71
2023/09/25 07:41:12;;;;;;;4.57;2.50;;;12.20;99.90;;;;;;5052603;28;20898;-71
2023/09/25 07:43:38;;;;;;;4.03;2.57;;;12.40;99.90;;;;;;5051103;28;20496;-71
2023/09/25 07:46:04;;;;;;;6.80;2.20;;;12.60;99.90;;;;;;5052343;28;20250;-71
2023/09/25 07:48:30;;;;;;;3.90;2.60;;;12.70;99.90;;;;;;5052402;28;20791;-71
2023/09/25 07:50:58;;;;;;;3.33;2.33;;;12.90;99.90;;;;;;5051076;28;20418;-71
2023/09/25 07:53:24;;;;;;;7.93;3.10;;;12.90;99.90;;;;;;5052323;28;20418;-71
2023/09/25 07:55:53;;;;;;;4.53;2.60;;;12.90;99.90;;;;;;5052023;28;20472;-71
2023/09/25 07:58:19;;;;;;;5.37;2.77;;;13.10;99.90;;;;;;5052161;28;20418;-71
2023/09/25 08:00:47;;;;;;;5.83;3.20;;;13.20;99.90;;;;;;5052288;28;20837;-71
2023/09/25 08:03:17;;;;;;;2.70;2.33;;;13.30;99.90;;;;;;5052055;28;20264;-71
2023/09/25 08:05:45;;;;;;;3.47;2.47;;;13.50;99.90;;;;;;5050750;28;20956;-71
2023/09/25 08:08:11;;;;;;;6.63;2.33;;;13.60;99.90;;;;;;5052026;28;20929;-71
2023/09/25 08:10:41;;;;;;;7.90;3.20;;;13.70;99.90;;;;;;5050658;28;20441;-71
2023/09/25 08:13:08;;;;;;;5.07;2.80;;;13.80;99.90;;;;;;5051467;28;20721;-71
2023/09/25 08:15:35;;;;;;;4.60;2.97;;;13.90;99.90;;;;;;5051679;28;20590;-71
2023/09/25 08:18:01;;;;;;;5.77;2.93;;;13.90;99.90;;;;;;5050473;28;20433;-71
2023/09/25 08:20:27;;;;;;;5.30;2.73;;;14.00;99.90;;;;;;5050638;28;20445;-71
2023/09/25 08:22:53;;;;;;;9.10;3.10;;;14.20;99.90;;;;;;5050450;28;20611;-71
2023/09/25 08:25:20;;;;;;;7.50;2.60;;;14.30;99.90;;;;;;5050313;28;21016;-71
2023/09/25 08:27:48;;;;;;;5.83;2.37;;;14.40;99.90;;;;;;5051672;28;20447;-71
2023/09/25 08:30:16;;;;;;;5.00;2.57;;;14.60;99.90;;;;;;5051667;28;20423;-71
2023/09/25 08:32:42;;;;;;;5.53;2.63;;;14.60;99.90;;;;;;5051646;28;20800;-71
2023/09/25 08:35:09;;;;;;;7.00;3.20;;;14.80;99.90;;;;;;5051633;28;20446;-71
2023/09/25 08:37:41;;;;;;;7.23;3.10;;;14.90;99.90;;;;;;5051659;28;20944;-71
2023/09/25 08:40:09;;;;;;;2.57;2.37;;;15.00;99.90;;;;;;5051524;28;20414;-71
2023/09/25 08:42:34;;;;;;;6.07;2.40;;;15.20;99.90;;;;;;5051416;28;20537;-71
2023/09/25 08:45:02;;;;;;;3.73;2.63;;;15.20;99.90;;;;;;5050163;28;20949;-71
2023/09/25 08:47:30;;;;;;;3.73;2.63;;;15.40;99.90;;;;;;5050200;28;20181;-71
2023/09/25 08:49:57;;;;;;;6.37;2.40;;;15.50;99.90;;;;;;5051809;28;20442;-71
2023/09/25 08:52:23;;;;;;;3.13;2.13;;;15.70;99.90;;;;;;5051339;28;20426;-71
2023/09/25 08:54:50;;;;;;;2.30;2.10;;;15.90;99.90;;;;;;5051210;28;20444;-71
2023/09/25 08:57:20;;;;;;;6.17;2.10;;;16.10;99.90;;;;;;5050080;28;20509;-72
2023/09/25 08:59:46;;;;;;;5.97;3.10;;;16.30;99.90;;;;;;5051381;28;20793;-72
2023/09/25 09:02:13;;;;;;;5.87;2.70;;;16.50;99.90;;;;;;5051171;28;20840;-71
2023/09/25 09:04:39;;;;;;;5.17;2.63;;;16.70;99.90;;;;;;5049962;28;20443;-72
2023/09/25 09:07:06;;;;;;;3.03;2.20;;;16.90;99.90;;;;;;5049868;28;20435;-71
2023/09/25 09:09:32;;;;;;;5.90;2.10;;;17.10;99.90;;;;;;5051091;28;20780;-71
2023/09/25 09:11:58;;;;;;;8.10;2.30;;;17.50;99.90;;;;;;5051204;28;20453;-71
2023/09/25 09:14:43;;;;;;;3.07;1.80;;;17.80;99.90;;;;;;5051010;28;20955;-71
2023/09/25 09:17:11;;;;;;;3.27;1.90;;;18.10;99.90;;;;;;5033598;28;20847;-72
2023/09/25 09:19:48;;;;;;;4.30;2.37;;;18.60;99.90;;;;;;5051092;28;21006;-71
2023/09/25 09:22:16;;;;;;;6.00;2.50;;;19.10;99.90;;;;;;5050919;28;20463;-71
2023/09/25 09:24:43;;;;;;;3.97;2.27;;;19.60;99.90;;;;;;5051610;28;20437;-71
2023/09/25 09:27:11;;;;;;;4.70;1.60;;;20.00;99.90;;;;;;5055089;28;20426;-72
2023/09/25 09:29:38;;;;;;;3.63;2.00;;;20.40;99.90;;;;;;5055140;28;20474;-71
2023/09/25 09:32:04;;;;;;;3.53;1.90;;;21.00;99.90;;;;;;5054977;28;20924;-72
2023/09/25 09:34:31;;;;;;;2.70;1.67;;;21.20;99.90;;;;;;5036993;28;20453;-72
2023/09/25 09:36:57;;;;;;;5.73;2.20;;;21.50;99.90;;;;;;5054850;28;20422;-72
2023/09/25 09:39:25;;;;;;;2.03;1.83;;;21.80;98.60;;;;;;5054879;28;20829;-72
2023/09/25 09:41:52;;;;;;;3.13;1.80;;;21.70;97.40;;;;;;5054692;28;20476;-72
2023/09/25 09:44:19;;;;;;;5.63;1.70;;;21.90;98.60;;;;;;5054728;28;20434;-72
2023/09/25 09:46:50;;;;;;;2.40;2.10;;;22.40;97.80;;;;;;5053332;28;20417;-72
2023/09/25 09:49:20;;;;;;;5.07;1.90;;;22.60;97.50;;;;;;5054713;28;20915;-72
2023/09/25 09:51:49;;;;;;;2.43;2.00;;;23.10;96.90;;;;;;5054913;28;20467;-72
2023/09/25 09:54:17;;;;;;;3.47;2.10;;;23.40;96.40;;;;;;5054460;28;20472;-72
2023/09/25 09:56:44;;;;;;;5.87;2.20;;;23.40;95.80;;;;;;5054554;28;20442;-72
2023/09/25 09:59:11;;;;;;;2.43;1.90;;;23.50;95.80;;;;;;5053057;28;20517;-72
2023/09/25 10:01:39;;;;;;;3.33;1.97;;;23.90;95.60;;;;;;5054405;28;20508;-72
2023/09/25 10:04:05;;;;;;;12.70;2.60;;;24.30;96.40;;;;;;5036342;28;20225;-72
2023/09/25 10:06:35;;;;;;;2.27;1.80;;;24.50;95.70;;;;;;5054368;28;20422;-72
2023/09/25 10:09:09;;;;;;;11.53;2.33;;;24.80;94.30;;;;;;5054508;28;20896;-72
2023/09/25 10:11:35;;;;;;;4.83;2.13;;;24.70;94.20;;;;;;5054426;28;20420;-72
2023/09/25 10:14:07;;;;;;;2.50;2.03;;;24.90;94.40;;;;;;5052879;28;20454;-72
2023/09/25 10:17:00;;;;;;;3.60;2.10;;;25.20;93.30;;;;;;5054169;28;20683;-72
2023/09/25 10:19:40;;;;;;;4.67;2.43;;;24.80;93.40;;;;;;5054181;28;20522;-72
2023/09/25 10:22:26;;;;;;;3.23;2.50;;;24.60;93.20;;;;;;5053983;28;20490;-72
2023/09/25 10:25:24;;;;;;;5.17;2.17;;;24.60;92.60;;;;;;5052846;28;20454;-72
2023/09/25 10:27:52;;;;;;;4.83;1.90;;;25.20;92.90;;;;;;5052703;28;20435;-71
2023/09/25 10:30:18;;;;;;;5.20;2.40;;;25.10;92.70;;;;;;5054071;28;20428;-72
2023/09/25 10:32:52;;;;;;;4.43;2.50;;;25.70;93.20;;;;;;5053865;28;20417;-71
2023/09/25 10:35:44;;;;;;;4.80;2.13;;;25.90;92.00;;;;;;5053782;28;20870;-73
2023/09/25 10:38:21;;;;;;;5.30;2.30;;;25.70;91.70;;;;;;5053081;28;20463;-73
2023/09/25 10:40:49;;;;;;;2.60;2.30;;;25.90;92.00;;;;;;5053651;28;20421;-73
2023/09/25 10:43:17;;;;;;;3.43;2.13;;;25.90;92.30;;;;;;5053637;28;20452;-73
2023/09/25 10:45:43;;;;;;;3.40;2.00;;;26.20;91.90;;;;;;5053487;28;20437;-73
2023/09/25 10:48:09;;;;;;;6.13;2.07;;;25.90;90.20;;;;;;5052249;28;20424;-73
2023/09/25 10:50:37;;;;;;;5.40;2.53;;;25.90;90.70;;;;;;5053570;28;20284;-73
2023/09/25 10:53:13;;;;;;;2.03;1.80;;;25.80;91.80;;;;;;5052163;28;20491;-73
2023/09/25 10:55:39;;;;;;;6.17;2.17;;;26.10;91.50;;;;;;5052068;28;20460;-73
2023/09/25 10:58:06;;;;;;;10.70;2.13;;;26.40;91.80;;;;;;5053496;28;20427;-72
2023/09/25 11:00:33;;;;;;;4.70;2.23;;;26.20;92.20;;;;;;5052451;28;20863;-70
2023/09/25 11:02:59;;;;;;;7.27;2.60;;;26.20;90.50;;;;;;5051805;28;20470;-72
2023/09/25 11:05:25;;;;;;;3.93;2.37;;;26.10;90.10;;;;;;5053160;28;20931;-73
2023/09/25 11:07:51;;;;;;;3.83;2.10;;;26.20;90.50;;;;;;5053182;28;20428;-72
2023/09/25 11:10:17;;;;;;;3.97;1.83;;;26.40;89.90;;;;;;5053195;28;20168;-73
2023/09/25 11:12:47;;;;;;;3.33;2.13;;;26.40;89.70;;;;;;5035480;28;20433;-73
2023/09/25 11:15:16;;;;;;;3.57;2.27;;;26.40;90.40;;;;;;5051626;28;21040;-73
2023/09/25 11:17:41;;;;;;;3.67;1.90;;;26.40;90.00;;;;;;5053045;28;20439;-73
2023/09/25 11:20:22;;;;;;;2.47;2.17;;;25.70;89.50;;;;;;5052996;28;20880;-73
2023/09/25 11:22:48;;;;;;;4.60;2.20;;;25.40;90.10;;;;;;5052888;28;20692;-73
2023/09/25 11:25:15;;;;;;;4.70;1.93;;;26.00;90.00;;;;;;5052773;28;20451;-73
2023/09/25 11:27:55;;;;;;;2.37;2.17;;;26.10;86.80;;;;;;5051497;28;20418;-73
2023/09/25 11:30:26;;;;;;;2.90;1.70;;;25.50;88.50;;;;;;5052899;28;20921;-73
2023/09/25 11:32:52;;;;;;;3.10;1.90;;;26.00;88.90;;;;;;5051443;28;20426;-72
2023/09/25 11:35:19;;;;;;;3.40;2.27;;;25.90;88.00;;;;;;5052618;28;20508;-72
2023/09/25 11:37:58;;;;;;;4.90;1.60;;;25.80;89.40;;;;;;5051474;28;20413;-72
2023/09/25 11:40:25;;;;;;;3.20;2.10;;;25.90;88.10;;;;;;5052918;28;20475;-71
2023/09/25 11:42:52;;;;;;;3.33;2.00;;;25.70;89.80;;;;;;5051272;28;20465;-71
2023/09/25 11:45:18;;;;;;;2.50;1.80;;;25.80;90.00;;;;;;5052491;28;20464;-73
2023/09/25 11:47:43;;;;;;;3.40;2.20;;;25.70;89.60;;;;;;5052203;28;20812;-73
2023/09/25 11:50:11;;;;;;;1.90;1.80;;;25.40;89.00;;;;;;5034035;28;20425;-73
2023/09/25 11:52:37;;;;;;;1.93;1.50;;;25.40;88.70;;;;;;5052333;28;20232;-73
2023/09/25 11:55:04;;;;;;;3.73;1.67;;;25.20;90.10;;;;;;5050935;28;20445;-73
2023/09/25 11:57:30;;;;;;;2.17;1.87;;;25.30;91.20;;;;;;5050863;28;20601;-73
2023/09/25 11:59:56;;;;;;;2.70;1.53;;;25.30;90.10;;;;;;5052246;28;20424;-73
2023/09/25 12:02:25;;;;;;;4.00;1.70;;;25.30;88.70;;;;;;5052083;28;20472;-73
2023/09/25 12:04:53;;;;;;;2.13;1.80;;;25.30;89.00;;;;;;5052038;28;20583;-73
2023/09/25 12:07:20;;;;;;;1.87;1.50;;;25.50;89.20;;;;;;5050781;28;20429;-72
2023/09/25 12:09:46;;;;;;;3.20;1.60;;;25.20;86.80;;;;;;5052089;28;20763;-72
2023/09/25 12:12:12;;;;;;;1.80;1.43;;;24.90;88.90;;;;;;5052043;28;20430;-72
2023/09/25 12:14:37;;;;;;;6.60;1.73;;;25.10;90.40;;;;;;5050600;28;20436;-72
2023/09/25 12:17:03;;;;;;;4.00;1.90;;;25.10;88.30;;;;;;5051953;28;20274;-72
2023/09/25 12:19:29;;;;;;;4.03;1.97;;;25.00;87.40;;;;;;5050593;28;20726;-73
2023/09/25 12:21:54;;;;;;;2.37;1.90;;;25.00;85.40;;;;;;5051885;28;20185;-72
2023/09/25 12:24:20;;;;;;;2.10;1.60;;;25.10;85.80;;;;;;5050499;28;20245;-73
2023/09/25 12:26:46;;;;;;;1.77;1.40;;;24.80;85.10;;;;;;5051835;28;20193;-72
2023/09/25 12:29:12;;;;;;;7.47;1.50;;;24.70;85.70;;;;;;5051618;28;20262;-72
2023/09/25 12:31:38;;;;;;;1.73;1.50;;;24.70;87.30;;;;;;5052013;28;20181;-72
2023/09/25 12:34:04;;;;;;;1.50;1.37;;;24.90;86.20;;;;;;5050383;28;20435;-73
2023/09/25 12:36:29;;;;;;;1.90;1.40;;;24.90;88.30;;;;;;5051567;28;20679;-72
2023/09/25 12:38:55;;;;;;;3.37;1.27;;;24.90;86.60;;;;;;5051591;28;20516;-72
2023/09/25 12:41:21;;;;;;;3.00;1.70;;;24.80;88.60;;;;;;5050301;28;20277;-73
2023/09/25 12:43:46;;;;;;;4.20;1.70;;;24.90;87.90;;;;;;5049988;28;20217;-72
2023/09/25 12:46:12;;;;;;;1.70;1.40;;;24.90;87.30;;;;;;5051484;28;20176;-72